»·PEaware :: N869BC KSBD-KPSP

N869BC :: KSBD-KPSP

FLIGHT INFORMATION

Flight Status: Arrived
Operator: Privately registered:
United States
More flights under this callsign
Pilot: Marcus R. (12677)
Aircraft: CESSNA T210 TURBO CENTURION
(T210)
More flights by this aircraft type
Origin: KSBD San Bernardino Intl
United States
Destination: KPSP Palm Springs Intl
United States
More flights between these airports :: More routes between these airports
Route: DIRECT
File this flight plan on PilotEdge
Remarks:
Altitude:
(Current/Filed)
5,500ft
Speed:
(Current/Filed)
165kts
Departed: 03-Oct-18 03:14 PM
Arrived: 03-Oct-18 03:38 PM
Distance/Time
Traveled:
40nm/0:23
Distance/Time
To Go:
Arrived

Flight Plot

Page will automatically refresh every two minutes.

Flight plan parsing failed; only flown route is shown


Map Options




Map Legend


Flown Route
Filed Route
Departure Airport
Arrival Airport
Navaid (VOR, NDB)
Fix

Horizontal Profiles

Position Reports

Time Latitude Longitude Heading Altitude Ground
Speed
03-Oct-18 14:56 34.102425 -117.224717 94 1160ft 0kts
03-Oct-18 14:57 34.102425 -117.224717 94 1160ft 0kts
03-Oct-18 14:58 34.102425 -117.224717 94 1160ft 0kts
03-Oct-18 14:59 34.102425 -117.224717 94 1160ft 0kts
03-Oct-18 15:00 34.102425 -117.224717 94 1160ft 0kts
03-Oct-18 15:01 34.102425 -117.224717 94 1160ft 0kts
03-Oct-18 15:02 34.102425 -117.224717 94 1160ft 0kts
03-Oct-18 15:03 34.102425 -117.224717 94 1160ft 0kts
03-Oct-18 15:04 34.102425 -117.224717 94 1160ft 0kts
03-Oct-18 15:05 34.102425 -117.224717 94 1160ft 0kts
03-Oct-18 15:06 34.102425 -117.224717 94 1160ft 0kts
03-Oct-18 15:07 34.102423 -117.224687 93 1161ft 0kts
03-Oct-18 15:08 34.102588 -117.224630 310 1160ft 2kts
03-Oct-18 15:09 34.101067 -117.224022 113 1160ft 14kts
03-Oct-18 15:10 34.100713 -117.219724 158 1161ft 0kts
03-Oct-18 15:11 34.100713 -117.219724 158 1161ft 0kts
03-Oct-18 15:12 34.100713 -117.219724 158 1161ft 0kts
03-Oct-18 15:13 34.100713 -117.219724 158 1161ft 0kts
03-Oct-18 15:14 34.100713 -117.219724 159 1161ft 0kts
03-Oct-18 15:15 34.099613 -117.220254 249 1161ft 31kts
03-Oct-18 15:16 34.091685 -117.244107 247 1928ft 85kts
03-Oct-18 15:17 34.079723 -117.245976 87 2788ft 103kts
03-Oct-18 15:18 34.079145 -117.211351 93 3636ft 104kts
03-Oct-18 15:19 34.076665 -117.175835 115 4440ft 108kts
03-Oct-18 15:20 34.065982 -117.141388 117 5275ft 109kts
03-Oct-18 15:21 34.048373 -117.103199 125 5408ft 151kts
03-Oct-18 15:22 34.033419 -117.053313 112 5441ft 164kts
03-Oct-18 15:23 34.016995 -117.001306 120 5439ft 166kts
03-Oct-18 15:24 33.995872 -116.952245 120 5438ft 163kts
03-Oct-18 15:25 33.976062 -116.903027 113 5439ft 164kts
03-Oct-18 15:26 33.959561 -116.851613 113 5478ft 162kts
03-Oct-18 15:27 33.942523 -116.801109 113 5515ft 165kts
03-Oct-18 15:28 33.923940 -116.749967 116 5494ft 168kts
03-Oct-18 15:29 33.901740 -116.702453 117 5469ft 155kts
03-Oct-18 15:30 33.883793 -116.658880 112 5438ft 132kts
03-Oct-18 15:31 33.872039 -116.626376 100 5035ft 97kts
03-Oct-18 15:32 33.881239 -116.604612 46 5012ft 86kts
03-Oct-18 15:33 33.903559 -116.593666 289 4755ft 98kts
03-Oct-18 15:34 33.911010 -116.600954 93 3886ft 101kts
03-Oct-18 15:35 33.897347 -116.573445 141 3141ft 98kts
03-Oct-18 15:36 33.874151 -116.552233 150 2475ft 118kts
03-Oct-18 15:37 33.845043 -116.533020 144 1666ft 120kts
03-Oct-18 15:38 33.821235 -116.513492 138 1271ft 94kts
03-Oct-18 15:39 33.820694 -116.499710 326 512ft 84kts
03-Oct-18 15:40 33.828463 -116.506689 318 480ft 26kts
03-Oct-18 15:41 33.828844 -116.508157 271 481ft 0kts
03-Oct-18 15:42 33.828844 -116.508157 271 481ft 0kts
03-Oct-18 15:43 33.827772 -116.509009 175 481ft 17kts
03-Oct-18 15:44 33.826093 -116.510213 258 481ft 0kts
03-Oct-18 15:45 33.826091 -116.510222 258 481ft 0kts
03-Oct-18 15:46 33.826091 -116.510222 258 481ft 0kts

Navigation Log

Ident Type
Flight plan parsing failed, navigation log unavailable